Terminal Aerodrome Forecast
Issued by NWS

Current Version | Previous Version | Text Only | Print | Product List | Glossary On
Versions: 1 2 3 4 5 6 7 8 9 10 11 12 13 14 15 16 17 18 19 20 21 22 23 24 25 26 27 28 29
000
FTUS45 KCYS 171700
TAFLAR
TAF
KLAR 171721Z 1718/1818 27005KT P6SM FEW100
     FM171900 30013G20KT P6SM VCTS SCT100CB
     FM180200 20005KT P6SM FEW150=

USA.gov is the U.S. government's official web portal to all federal, state and local government web resources and services.